Time;durP1;ratioP1;P1;durP2;ratioP2;P2;SDS_P1;SDS_P2;PMS_P1;PMS_P2;Temp;Humidity;BMP_temperature;BMP_pressure;BME280_temperature;BME280_humidity;BME280_pressure;Samples;Min_cycle;Max_cycle;Signal;HPM_P1;HPM_P2
2023/10/05 00:01:44;;;;;;;12.30;4.67;;;15.70;92.50;;;;;;5054638;28;20454;-56
2023/10/05 00:04:15;;;;;;;16.90;4.47;;;15.60;92.60;;;;;;5054818;28;20430;-56
2023/10/05 00:06:44;;;;;;;12.93;4.53;;;15.60;93.00;;;;;;5054662;28;20501;-56
2023/10/05 00:09:13;;;;;;;14.73;5.60;;;15.70;92.40;;;;;;5054593;28;20805;-56
2023/10/05 00:11:41;;;;;;;16.90;5.37;;;15.60;92.40;;;;;;5054539;28;20453;-55
2023/10/05 00:14:10;;;;;;;13.93;4.30;;;15.60;92.50;;;;;;5054546;28;20449;-55
2023/10/05 00:16:37;;;;;;;9.77;4.07;;;15.60;92.50;;;;;;5054463;28;20465;-56
2023/10/05 00:19:09;;;;;;;14.13;4.80;;;15.50;92.60;;;;;;5054669;28;20493;-56
2023/10/05 00:21:36;;;;;;;11.43;4.10;;;15.60;92.70;;;;;;5055045;28;20434;-56
2023/10/05 00:24:06;;;;;;;17.60;4.47;;;15.60;92.80;;;;;;5055421;28;20445;-56
2023/10/05 00:26:33;;;;;;;10.10;4.27;;;15.60;92.80;;;;;;5055377;28;20434;-56
2023/10/05 00:29:05;;;;;;;8.13;3.77;;;15.50;92.70;;;;;;5056333;28;20970;-56
2023/10/05 00:31:38;;;;;;;8.60;3.83;;;15.50;92.80;;;;;;5053755;28;20917;-56
2023/10/05 00:34:08;;;;;;;17.00;4.40;;;15.50;92.90;;;;;;5054014;28;20457;-56
2023/10/05 00:36:39;;;;;;;11.23;3.73;;;15.50;93.00;;;;;;5054040;28;20453;-56
2023/10/05 00:39:08;;;;;;;11.67;5.00;;;15.50;93.20;;;;;;5053851;28;20515;-56
2023/10/05 00:41:36;;;;;;;9.50;3.53;;;15.50;93.20;;;;;;5053774;28;20442;-55
2023/10/05 00:44:04;;;;;;;12.00;3.57;;;15.50;93.10;;;;;;5053796;28;20446;-56
2023/10/05 00:46:33;;;;;;;14.87;3.90;;;15.50;93.20;;;;;;5054429;28;20456;-56
2023/10/05 00:49:03;;;;;;;11.80;3.70;;;15.60;93.10;;;;;;5053703;28;20442;-56
2023/10/05 00:51:32;;;;;;;8.03;4.20;;;15.60;93.00;;;;;;5053367;28;20453;-56
2023/10/05 00:54:03;;;;;;;7.90;3.80;;;15.60;93.00;;;;;;5053663;28;20453;-56
2023/10/05 00:56:34;;;;;;;9.10;3.80;;;15.60;92.90;;;;;;5053697;28;20430;-56
2023/10/05 00:59:06;;;;;;;10.73;4.40;;;15.60;93.00;;;;;;5053473;28;20470;-56
2023/10/05 01:01:58;;;;;;;13.90;4.73;;;15.60;93.00;;;;;;5053217;28;20983;-55
2023/10/05 01:04:28;;;;;;;10.53;3.87;;;15.60;93.30;;;;;;5053164;28;20438;-56
2023/10/05 01:07:07;;;;;;;8.67;3.43;;;15.50;92.90;;;;;;5053567;28;20430;-56
2023/10/05 01:09:55;;;;;;;6.33;3.90;;;15.50;92.90;;;;;;5053307;28;20971;-56
2023/10/05 01:12:33;;;;;;;8.20;3.30;;;15.60;93.20;;;;;;5053227;28;20426;-56
2023/10/05 01:15:02;;;;;;;13.03;4.17;;;15.60;93.20;;;;;;5053291;28;20813;-55
2023/10/05 01:17:31;;;;;;;11.77;4.43;;;15.60;93.20;;;;;;5053369;28;20477;-56
2023/10/05 01:20:09;;;;;;;12.00;4.03;;;15.60;93.20;;;;;;5053568;28;20492;-56
2023/10/05 01:22:39;;;;;;;8.40;3.83;;;15.60;93.20;;;;;;5053302;28;20536;-55
2023/10/05 01:25:08;;;;;;;13.60;4.13;;;15.60;93.20;;;;;;5053296;28;20445;-56
2023/10/05 01:27:37;;;;;;;9.10;4.40;;;15.50;93.30;;;;;;5053295;28;20540;-56
2023/10/05 01:30:06;;;;;;;8.60;3.93;;;15.50;93.30;;;;;;5053040;28;20466;-55
2023/10/05 01:32:34;;;;;;;10.67;4.10;;;15.50;93.30;;;;;;5052846;28;20445;-56
2023/10/05 01:35:06;;;;;;;9.33;4.60;;;15.50;93.40;;;;;;5053124;28;20450;-56
2023/10/05 01:37:36;;;;;;;12.43;3.53;;;15.50;93.40;;;;;;5053083;28;20487;-55
2023/10/05 01:40:11;;;;;;;17.00;5.60;;;15.50;93.50;;;;;;5053358;28;20477;-56
2023/10/05 01:42:43;;;;;;;10.80;4.00;;;15.50;93.60;;;;;;5053150;28;20512;-56
2023/10/05 01:45:13;;;;;;;14.83;5.47;;;15.40;93.50;;;;;;5053100;28;20441;-56
2023/10/05 01:47:43;;;;;;;12.57;4.70;;;15.40;93.80;;;;;;5053081;28;20815;-56
2023/10/05 01:50:16;;;;;;;15.43;4.20;;;15.40;93.60;;;;;;5052717;28;20477;-56
2023/10/05 01:52:45;;;;;;;10.23;3.30;;;15.40;93.70;;;;;;5053205;28;20430;-56
2023/10/05 01:55:14;;;;;;;11.27;3.33;;;15.40;93.80;;;;;;5055589;28;20456;-56
2023/10/05 01:57:44;;;;;;;11.93;4.60;;;15.40;93.90;;;;;;5057021;28;20442;-56
2023/10/05 02:00:19;;;;;;;8.40;3.17;;;15.30;94.00;;;;;;5057008;28;20939;-56
2023/10/05 02:02:48;;;;;;;13.17;4.47;;;15.30;94.00;;;;;;5056640;28;20969;-56
2023/10/05 02:05:20;;;;;;;8.47;3.53;;;15.30;94.00;;;;;;5056795;28;20481;-56
2023/10/05 02:07:49;;;;;;;6.97;2.80;;;15.30;94.10;;;;;;5056618;28;20814;-56
2023/10/05 02:10:19;;;;;;;13.30;5.10;;;15.30;94.10;;;;;;5056741;28;20561;-56
2023/10/05 02:12:54;;;;;;;5.77;2.80;;;15.30;94.10;;;;;;5056838;28;20778;-56
2023/10/05 02:15:28;;;;;;;6.37;2.67;;;15.30;94.10;;;;;;5056325;28;20827;-55
2023/10/05 02:17:56;;;;;;;13.03;3.30;;;15.30;94.00;;;;;;5056674;28;20509;-56
2023/10/05 02:20:38;;;;;;;9.17;3.07;;;15.20;94.10;;;;;;5056468;28;20508;-56
2023/10/05 02:23:18;;;;;;;11.23;3.30;;;15.10;94.00;;;;;;5056619;28;20436;-55
2023/10/05 02:25:45;;;;;;;10.80;2.77;;;15.10;94.40;;;;;;5056514;28;20441;-56
2023/10/05 02:28:25;;;;;;;10.37;2.87;;;15.10;94.60;;;;;;5057493;28;20500;-56
2023/10/05 02:30:54;;;;;;;11.13;2.97;;;15.10;94.60;;;;;;5056332;28;20462;-56
2023/10/05 02:33:24;;;;;;;11.57;2.80;;;15.10;94.50;;;;;;5056409;28;20482;-56
2023/10/05 02:36:09;;;;;;;10.23;3.30;;;15.10;94.40;;;;;;5072990;28;20463;-55
2023/10/05 02:38:37;;;;;;;4.73;2.80;;;15.00;94.30;;;;;;5075892;28;20431;-56
2023/10/05 02:41:05;;;;;;;6.40;2.83;;;14.90;94.40;;;;;;5076078;28;20468;-55
2023/10/05 02:43:39;;;;;;;11.87;3.03;;;15.00;94.60;;;;;;5076065;28;20483;-56
2023/10/05 02:46:10;;;;;;;9.57;3.10;;;15.00;94.60;;;;;;5076229;28;20432;-56
2023/10/05 02:48:37;;;;;;;7.60;3.30;;;14.90;94.60;;;;;;5076104;28;20494;-56
2023/10/05 02:51:06;;;;;;;9.67;2.83;;;15.00;94.70;;;;;;5075688;28;20918;-56
2023/10/05 02:53:41;;;;;;;5.63;2.40;;;14.90;94.50;;;;;;5075945;28;20856;-56
2023/10/05 02:56:20;;;;;;;7.50;2.60;;;14.90;94.70;;;;;;5075759;28;20918;-56
2023/10/05 02:58:54;;;;;;;5.03;2.10;;;14.90;94.70;;;;;;5075860;28;20429;-56
2023/10/05 03:01:21;;;;;;;8.23;3.17;;;14.90;94.60;;;;;;5075634;28;20476;-56
2023/10/05 03:03:50;;;;;;;9.10;2.73;;;14.80;94.70;;;;;;5075759;28;20476;-56
2023/10/05 03:06:16;;;;;;;9.00;2.97;;;14.80;94.90;;;;;;5074215;28;20813;-56
2023/10/05 03:08:46;;;;;;;4.40;2.40;;;14.80;94.80;;;;;;5075816;28;20441;-56
2023/10/05 03:11:13;;;;;;;5.70;2.23;;;14.80;95.00;;;;;;5075593;28;20465;-56
2023/10/05 03:13:41;;;;;;;7.43;2.87;;;14.80;95.10;;;;;;5075520;28;20440;-56
2023/10/05 03:16:11;;;;;;;8.83;3.00;;;14.80;95.10;;;;;;5075582;28;20444;-56
2023/10/05 03:18:42;;;;;;;8.53;2.80;;;14.80;95.10;;;;;;5076317;28;20429;-56
2023/10/05 03:21:12;;;;;;;9.33;2.97;;;14.80;95.00;;;;;;5075387;28;20489;-56
2023/10/05 03:23:39;;;;;;;9.73;3.03;;;14.80;95.10;;;;;;5075381;28;20481;-56
2023/10/05 03:26:08;;;;;;;8.60;3.00;;;14.80;95.10;;;;;;5075062;28;20942;-56
2023/10/05 03:28:35;;;;;;;7.67;2.77;;;14.80;95.10;;;;;;5075351;28;20475;-56
2023/10/05 03:31:06;;;;;;;8.10;3.70;;;14.80;95.10;;;;;;5075190;28;20471;-56
2023/10/05 03:33:35;;;;;;;7.03;2.50;;;14.80;95.10;;;;;;5074970;28;20433;-55
2023/10/05 03:36:06;;;;;;;7.03;3.53;;;14.80;95.20;;;;;;5075185;28;20448;-56
2023/10/05 03:38:33;;;;;;;7.90;2.43;;;14.80;95.30;;;;;;5075127;28;20469;-56
2023/10/05 03:41:04;;;;;;;7.00;2.87;;;14.80;95.10;;;;;;5074995;28;20492;-56
2023/10/05 03:43:32;;;;;;;10.10;3.00;;;14.80;95.00;;;;;;5074578;28;20917;-55
2023/10/05 03:46:06;;;;;;;6.80;2.47;;;14.80;95.00;;;;;;5074968;28;20483;-56
2023/10/05 03:48:38;;;;;;;7.33;2.53;;;14.80;95.00;;;;;;5074917;28;20428;-56
2023/10/05 03:51:15;;;;;;;7.30;2.70;;;14.80;95.20;;;;;;5075109;28;20562;-56
2023/10/05 03:53:48;;;;;;;8.37;2.27;;;14.70;95.10;;;;;;5074848;28;20432;-55
2023/10/05 03:56:17;;;;;;;7.37;2.50;;;14.70;95.30;;;;;;5074813;28;20436;-56
2023/10/05 03:58:45;;;;;;;8.80;3.00;;;14.70;95.40;;;;;;5074514;28;20503;-56
2023/10/05 04:01:12;;;;;;;8.33;3.13;;;14.70;95.50;;;;;;5074212;28;21062;-56
2023/10/05 04:03:40;;;;;;;3.60;2.20;;;14.70;95.40;;;;;;5074579;28;20441;-56
2023/10/05 04:06:17;;;;;;;7.67;3.17;;;14.70;95.40;;;;;;5074620;28;20515;-56
2023/10/05 04:08:46;;;;;;;11.70;2.50;;;14.60;95.40;;;;;;5074514;28;20421;-56
2023/10/05 04:11:13;;;;;;;6.00;1.90;;;14.60;95.40;;;;;;5074693;28;20556;-56
2023/10/05 04:13:39;;;;;;;9.50;2.90;;;14.60;95.60;;;;;;5073937;28;20434;-55
2023/10/05 04:16:10;;;;;;;8.93;2.57;;;14.50;95.60;;;;;;5074474;28;20574;-56
2023/10/05 04:18:38;;;;;;;5.40;2.27;;;14.60;95.90;;;;;;5074093;28;20429;-56
2023/10/05 04:21:06;;;;;;;7.47;2.77;;;14.60;95.70;;;;;;5074238;28;20493;-56
2023/10/05 04:23:33;;;;;;;9.27;3.10;;;14.60;95.70;;;;;;5074187;28;20475;-55
2023/10/05 04:26:01;;;;;;;6.10;2.53;;;14.60;95.70;;;;;;5074283;28;20788;-56
2023/10/05 04:28:31;;;;;;;6.10;3.00;;;14.60;95.60;;;;;;5074180;28;20449;-56
2023/10/05 04:30:58;;;;;;;11.20;2.80;;;14.60;95.60;;;;;;5073625;28;20469;-56
2023/10/05 04:33:26;;;;;;;6.37;2.50;;;14.60;95.70;;;;;;5074059;28;20213;-56
2023/10/05 04:35:53;;;;;;;8.73;2.40;;;14.60;95.70;;;;;;5074183;28;20445;-56
2023/10/05 04:38:25;;;;;;;6.70;2.70;;;14.60;95.60;;;;;;5073961;28;20444;-56
2023/10/05 04:40:52;;;;;;;4.73;2.50;;;14.60;95.60;;;;;;5073827;28;20488;-56
2023/10/05 04:43:19;;;;;;;10.13;2.97;;;14.60;95.80;;;;;;5073601;28;20494;-55
2023/10/05 04:45:47;;;;;;;11.10;3.00;;;14.60;95.80;;;;;;5073789;28;20869;-56
2023/10/05 04:48:13;;;;;;;10.63;2.50;;;14.60;95.90;;;;;;5073880;28;20445;-56
2023/10/05 04:50:41;;;;;;;9.73;3.37;;;14.50;96.20;;;;;;5073709;28;20884;-56
2023/10/05 04:53:09;;;;;;;8.33;2.90;;;14.50;96.00;;;;;;5073704;28;20541;-56
2023/10/05 04:55:42;;;;;;;8.50;3.03;;;14.40;96.10;;;;;;5073693;28;20436;-56
2023/10/05 04:58:31;;;;;;;10.33;3.43;;;14.40;96.30;;;;;;5073722;28;20859;-56
2023/10/05 05:03:55;;;;;;;8.67;3.00;;;14.40;96.50;;;;;;5073380;28;20425;-56
2023/10/05 05:06:25;;;;;;;10.10;3.07;;;14.40;96.60;;;;;;5073671;28;20425;-56
2023/10/05 05:08:53;;;;;;;9.03;2.53;;;14.40;96.70;;;;;;5073731;28;20554;-56
2023/10/05 05:11:21;;;;;;;6.90;2.90;;;14.40;96.60;;;;;;5073518;28;20530;-56
2023/10/05 05:13:49;;;;;;;6.43;3.30;;;14.30;96.80;;;;;;5073643;28;20445;-55
2023/10/05 05:16:15;;;;;;;10.27;2.30;;;14.30;96.90;;;;;;5073623;28;20475;-56
2023/10/05 05:18:42;;;;;;;5.33;2.20;;;14.30;96.90;;;;;;5073560;28;20437;-56
2023/10/05 05:21:11;;;;;;;8.33;2.97;;;14.40;97.00;;;;;;5073366;28;20480;-55
2023/10/05 05:23:39;;;;;;;5.07;2.57;;;14.40;96.90;;;;;;5073216;28;20484;-56
2023/10/05 05:26:09;;;;;;;10.27;2.57;;;14.50;96.80;;;;;;5073406;28;20447;-56
2023/10/05 05:28:37;;;;;;;12.27;2.47;;;14.50;96.80;;;;;;5072901;28;20468;-56
2023/10/05 05:31:07;;;;;;;9.07;2.40;;;14.60;96.70;;;;;;5073284;28;20465;-55
2023/10/05 05:33:36;;;;;;;15.13;3.40;;;14.60;96.70;;;;;;5073503;28;20482;-56
2023/10/05 05:36:07;;;;;;;6.63;2.60;;;14.60;96.70;;;;;;5053713;28;20461;-56
2023/10/05 05:38:35;;;;;;;4.80;2.13;;;14.60;96.50;;;;;;5052900;28;20434;-56
2023/10/05 05:41:03;;;;;;;15.60;3.37;;;14.60;96.60;;;;;;5053255;28;20511;-56
2023/10/05 05:43:33;;;;;;;12.73;2.60;;;14.60;96.60;;;;;;5053175;28;20503;-56
2023/10/05 05:46:01;;;;;;;6.60;2.47;;;14.70;96.60;;;;;;5053231;28;20846;-56
2023/10/05 05:48:28;;;;;;;10.17;3.00;;;14.70;96.60;;;;;;5053122;28;20928;-56
2023/10/05 05:50:55;;;;;;;6.07;2.53;;;14.60;96.60;;;;;;5052746;28;20465;-56
2023/10/05 05:53:21;;;;;;;7.03;2.90;;;14.70;96.60;;;;;;5053079;28;20449;-56
2023/10/05 05:55:53;;;;;;;8.00;2.47;;;14.70;96.60;;;;;;5053214;28;20448;-56
2023/10/05 05:58:19;;;;;;;5.43;2.40;;;14.70;96.60;;;;;;5053011;28;20918;-56
2023/10/05 06:00:46;;;;;;;4.30;2.33;;;14.70;96.70;;;;;;5053491;28;20572;-56
2023/10/05 06:03:16;;;;;;;8.70;2.50;;;14.70;96.60;;;;;;5053821;28;20477;-56
2023/10/05 06:05:43;;;;;;;8.30;2.60;;;14.70;96.70;;;;;;5054559;28;20947;-55
2023/10/05 06:08:11;;;;;;;14.33;3.50;;;14.80;96.60;;;;;;5054316;28;20446;-56
2023/10/05 06:10:38;;;;;;;8.73;3.10;;;14.80;96.60;;;;;;5052641;28;20487;-56
2023/10/05 06:13:07;;;;;;;8.40;2.63;;;14.80;96.50;;;;;;5052710;28;20454;-56
2023/10/05 06:15:34;;;;;;;9.80;2.97;;;14.80;96.50;;;;;;5052581;28;20931;-56
2023/10/05 06:18:01;;;;;;;12.03;2.93;;;14.90;96.50;;;;;;5052677;28;20453;-56
2023/10/05 06:20:29;;;;;;;10.77;2.67;;;14.80;96.50;;;;;;5052678;28;20481;-56
2023/10/05 06:22:56;;;;;;;7.97;2.40;;;14.80;96.50;;;;;;5052690;28;20438;-56
2023/10/05 06:25:22;;;;;;;10.27;2.67;;;14.80;96.70;;;;;;5052827;28;20445;-56
2023/10/05 06:27:50;;;;;;;12.20;2.77;;;14.80;96.40;;;;;;5052749;28;20441;-56
2023/10/05 06:30:17;;;;;;;6.30;2.23;;;14.80;96.60;;;;;;5052588;28;20476;-56
2023/10/05 06:32:44;;;;;;;9.13;3.03;;;14.80;96.70;;;;;;5053579;28;20442;-56
2023/10/05 06:35:12;;;;;;;11.03;3.23;;;14.80;96.80;;;;;;5052655;28;20442;-56
2023/10/05 06:37:41;;;;;;;6.07;2.67;;;14.80;96.90;;;;;;5052686;28;20481;-56
2023/10/05 06:40:12;;;;;;;10.07;3.60;;;14.90;96.70;;;;;;5053150;28;20493;-56
2023/10/05 06:42:41;;;;;;;9.63;2.43;;;14.90;96.60;;;;;;5056003;28;20426;-57
2023/10/05 06:45:09;;;;;;;7.50;3.03;;;14.90;96.50;;;;;;5056215;28;20471;-56
2023/10/05 06:47:36;;;;;;;8.80;3.50;;;15.00;96.70;;;;;;5056111;28;20445;-56
2023/10/05 06:50:08;;;;;;;9.50;3.17;;;14.90;96.50;;;;;;5055884;28;20469;-57
2023/10/05 06:52:39;;;;;;;8.87;2.80;;;15.00;96.60;;;;;;5056055;28;20425;-56
2023/10/05 06:55:08;;;;;;;6.53;3.13;;;15.00;96.50;;;;;;5055993;28;20829;-57
2023/10/05 06:57:36;;;;;;;7.90;2.63;;;15.00;96.40;;;;;;5055905;28;20447;-57
2023/10/05 07:00:11;;;;;;;8.00;3.13;;;15.20;96.60;;;;;;5055318;28;20465;-57
2023/10/05 07:02:39;;;;;;;11.80;3.90;;;15.20;96.60;;;;;;5055925;28;20430;-57
2023/10/05 07:05:06;;;;;;;10.87;3.10;;;15.20;96.20;;;;;;5055766;28;20445;-56
2023/10/05 07:07:33;;;;;;;9.53;2.50;;;15.20;96.10;;;;;;5055811;28;20488;-57
2023/10/05 07:10:00;;;;;;;8.47;3.10;;;15.10;96.10;;;;;;5055626;28;20469;-56
2023/10/05 07:12:28;;;;;;;6.90;3.33;;;15.20;96.20;;;;;;5056076;28;20446;-56
2023/10/05 07:14:56;;;;;;;6.87;2.90;;;15.20;96.20;;;;;;5055281;28;20928;-56
2023/10/05 07:17:25;;;;;;;8.27;3.23;;;15.30;96.30;;;;;;5055585;28;20446;-57
2023/10/05 07:19:52;;;;;;;6.50;2.40;;;15.30;96.20;;;;;;5055583;28;20469;-56
2023/10/05 07:22:19;;;;;;;9.43;2.90;;;15.30;96.40;;;;;;5055451;28;20477;-56
2023/10/05 07:24:46;;;;;;;8.70;2.63;;;15.30;96.10;;;;;;5056376;28;20827;-56
2023/10/05 07:27:13;;;;;;;11.90;3.10;;;15.30;96.20;;;;;;5055863;28;20453;-56
2023/10/05 07:29:44;;;;;;;9.03;2.80;;;15.30;96.20;;;;;;5055791;28;20469;-57
2023/10/05 07:32:12;;;;;;;6.37;2.57;;;15.40;96.30;;;;;;5055566;28;20954;-56
2023/10/05 07:34:39;;;;;;;5.07;2.57;;;15.40;96.20;;;;;;5056069;28;20449;-57
2023/10/05 07:37:06;;;;;;;9.23;2.70;;;15.50;96.40;;;;;;5056339;28;20482;-56
2023/10/05 07:39:34;;;;;;;5.80;3.00;;;15.50;96.10;;;;;;5056560;28;20469;-56
2023/10/05 07:42:01;;;;;;;7.90;2.47;;;15.50;96.10;;;;;;5056599;28;20493;-57
2023/10/05 07:44:27;;;;;;;10.90;3.77;;;15.60;96.10;;;;;;5055080;28;20442;-57
2023/10/05 07:46:55;;;;;;;8.50;2.63;;;15.70;95.90;;;;;;5054637;28;20477;-57
2023/10/05 07:49:22;;;;;;;8.03;2.90;;;15.80;95.70;;;;;;5054985;28;20477;-57
2023/10/05 07:51:49;;;;;;;8.73;2.97;;;15.80;95.50;;;;;;5053891;28;20457;-56
2023/10/05 07:54:16;;;;;;;9.63;3.07;;;15.80;95.60;;;;;;5054935;28;20484;-56
2023/10/05 07:56:42;;;;;;;8.23;3.00;;;15.80;95.70;;;;;;5054867;28;20453;-57
2023/10/05 07:59:09;;;;;;;12.87;2.90;;;15.90;95.30;;;;;;5054427;28;20959;-57
2023/10/05 08:01:36;;;;;;;9.37;3.23;;;16.00;95.30;;;;;;5054622;28;20493;-56
2023/10/05 08:04:04;;;;;;;8.07;3.27;;;16.10;95.10;;;;;;5054729;28;20446;-57
2023/10/05 08:06:31;;;;;;;8.93;2.77;;;16.10;95.10;;;;;;5054740;28;20445;-57
2023/10/05 08:08:58;;;;;;;5.73;2.50;;;16.20;94.80;;;;;;5054483;28;20458;-57
2023/10/05 08:11:25;;;;;;;10.77;3.50;;;16.30;94.70;;;;;;5054482;28;20442;-57
2023/10/05 08:13:52;;;;;;;8.87;2.80;;;16.40;94.50;;;;;;5054456;28;20452;-56
2023/10/05 08:16:18;;;;;;;8.83;3.00;;;16.50;94.60;;;;;;5054452;28;20496;-57
2023/10/05 08:18:45;;;;;;;7.13;3.00;;;16.50;94.50;;;;;;5054431;28;20446;-56
2023/10/05 08:21:14;;;;;;;6.73;2.60;;;16.40;93.80;;;;;;5054255;28;20482;-56
2023/10/05 08:23:41;;;;;;;6.87;2.90;;;16.40;94.10;;;;;;5054410;28;20471;-56
2023/10/05 08:26:08;;;;;;;12.80;3.10;;;16.50;94.50;;;;;;5054328;28;20441;-57
2023/10/05 08:28:36;;;;;;;7.03;3.00;;;16.60;94.20;;;;;;5057056;28;20495;-57
2023/10/05 08:31:07;;;;;;;10.57;2.80;;;16.60;94.10;;;;;;5054990;28;20462;-57
2023/10/05 08:33:34;;;;;;;7.20;2.77;;;16.70;94.30;;;;;;5054501;28;20842;-57
2023/10/05 08:36:06;;;;;;;9.30;3.03;;;16.80;93.90;;;;;;5054410;28;20465;-56
2023/10/05 08:38:35;;;;;;;8.97;2.50;;;16.90;93.40;;;;;;5053783;28;20452;-56
2023/10/05 08:41:07;;;;;;;7.43;2.87;;;17.00;93.40;;;;;;5053872;28;20489;-56
2023/10/05 08:43:35;;;;;;;6.20;3.30;;;17.10;93.10;;;;;;5054221;28;20430;-56
2023/10/05 08:46:07;;;;;;;13.77;3.30;;;17.20;93.20;;;;;;5053930;28;20507;-56
2023/10/05 08:48:35;;;;;;;7.57;3.07;;;17.30;93.00;;;;;;5054001;28;20436;-57
2023/10/05 08:51:09;;;;;;;8.07;2.83;;;17.30;92.90;;;;;;5053971;28;20519;-56
2023/10/05 08:53:43;;;;;;;8.03;2.33;;;17.40;92.60;;;;;;5053985;28;20434;-56
2023/10/05 08:56:13;;;;;;;4.10;1.80;;;17.40;91.90;;;;;;5053832;28;20438;-57
2023/10/05 08:58:41;;;;;;;9.27;2.50;;;17.50;92.00;;;;;;5053773;28;20452;-57
2023/10/05 09:01:24;;;;;;;12.63;3.23;;;17.50;91.70;;;;;;5053699;28;20485;-57
2023/10/05 09:04:01;;;;;;;7.97;2.80;;;17.60;91.80;;;;;;5053655;28;20430;-57
2023/10/05 09:06:28;;;;;;;9.23;3.00;;;17.70;91.60;;;;;;5053623;28;20804;-57
2023/10/05 09:09:07;;;;;;;6.43;2.37;;;17.60;90.70;;;;;;5053505;28;20449;-57
2023/10/05 09:11:34;;;;;;;6.67;2.57;;;17.60;91.40;;;;;;5053230;28;20998;-57
2023/10/05 09:14:12;;;;;;;7.53;3.10;;;17.60;91.50;;;;;;5053457;28;20450;-56
2023/10/05 09:16:43;;;;;;;6.67;2.40;;;17.60;91.10;;;;;;5053510;28;20513;-57
2023/10/05 09:19:12;;;;;;;8.10;2.40;;;17.50;90.90;;;;;;5053331;28;20536;-57
2023/10/05 09:21:44;;;;;;;5.53;2.40;;;17.50;91.10;;;;;;5053114;28;21064;-57
2023/10/05 09:24:21;;;;;;;7.23;2.80;;;17.40;91.30;;;;;;5053393;28;20548;-56
2023/10/05 09:26:52;;;;;;;6.63;2.90;;;17.40;91.60;;;;;;5053824;28;20430;-57
2023/10/05 09:29:20;;;;;;;9.73;2.57;;;17.40;91.20;;;;;;5052993;28;20958;-57
2023/10/05 09:31:50;;;;;;;8.90;2.50;;;17.50;91.80;;;;;;5053205;28;20476;-56
2023/10/05 09:34:19;;;;;;;8.00;2.70;;;17.60;91.90;;;;;;5053386;28;20456;-56
2023/10/05 09:36:47;;;;;;;11.33;2.90;;;17.70;91.70;;;;;;5053220;28;20503;-56
2023/10/05 09:39:16;;;;;;;10.80;2.40;;;17.70;91.30;;;;;;5053136;28;20441;-57
2023/10/05 09:41:51;;;;;;;12.40;3.10;;;17.70;90.90;;;;;;5053072;28;20484;-57
2023/10/05 09:44:18;;;;;;;4.07;2.37;;;17.70;91.30;;;;;;5053419;28;20503;-57
2023/10/05 09:46:46;;;;;;;8.70;3.03;;;17.70;91.40;;;;;;5052912;28;20827;-57
2023/10/05 09:49:17;;;;;;;6.37;3.00;;;17.70;91.20;;;;;;5053111;28;20441;-57
2023/10/05 09:51:48;;;;;;;6.07;2.20;;;17.80;91.20;;;;;;5053000;28;20459;-56
2023/10/05 09:54:16;;;;;;;10.20;2.63;;;17.80;90.80;;;;;;5053249;28;20432;-57
2023/10/05 09:56:47;;;;;;;9.90;2.83;;;17.80;91.20;;;;;;5053101;28;20485;-57
2023/10/05 09:59:16;;;;;;;10.93;3.30;;;17.90;91.50;;;;;;5053003;28;20430;-56
2023/10/05 10:01:47;;;;;;;7.00;2.40;;;17.80;91.00;;;;;;5052573;28;20998;-56
2023/10/05 10:04:34;;;;;;;9.70;2.27;;;18.00;91.00;;;;;;5053073;28;20430;-57
2023/10/05 10:07:15;;;;;;;10.83;2.90;;;18.00;90.80;;;;;;5053016;28;20434;-57
2023/10/05 10:09:46;;;;;;;8.03;2.80;;;18.00;90.30;;;;;;5052888;28;20493;-56
2023/10/05 10:12:26;;;;;;;5.63;2.27;;;17.90;90.20;;;;;;5052948;28;20566;-56
2023/10/05 10:14:58;;;;;;;7.67;3.10;;;18.00;90.70;;;;;;5053200;28;20450;-56
2023/10/05 10:17:28;;;;;;;7.47;2.83;;;17.90;90.80;;;;;;5056526;28;20904;-56
2023/10/05 10:20:17;;;;;;;16.80;3.00;;;18.10;90.60;;;;;;5056621;28;20476;-56
2023/10/05 10:22:50;;;;;;;7.10;2.60;;;18.20;91.00;;;;;;5056723;28;20469;-56
2023/10/05 10:25:31;;;;;;;10.77;3.27;;;18.20;90.60;;;;;;5056540;28;20449;-57
2023/10/05 10:28:24;;;;;;;4.73;2.70;;;18.30;89.60;;;;;;5056210;28;20838;-57
2023/10/05 10:31:17;;;;;;;12.23;3.30;;;18.30;88.70;;;;;;5056187;28;20987;-57
2023/10/05 10:33:49;;;;;;;10.80;2.73;;;18.20;89.00;;;;;;5056399;28;20430;-57
2023/10/05 10:36:19;;;;;;;4.63;2.73;;;18.20;89.20;;;;;;5056449;28;20422;-57
2023/10/05 10:38:50;;;;;;;6.07;2.20;;;18.10;89.00;;;;;;5056036;28;20813;-57
2023/10/05 10:41:17;;;;;;;4.97;2.50;;;18.10;89.70;;;;;;5056078;28;20503;-57
2023/10/05 10:43:49;;;;;;;9.40;3.10;;;18.20;90.50;;;;;;5056179;28;20454;-57
2023/10/05 10:46:29;;;;;;;5.57;2.70;;;18.10;88.60;;;;;;5056032;28;20958;-57
2023/10/05 10:49:00;;;;;;;6.23;2.83;;;18.00;89.80;;;;;;5056235;28;20491;-57
2023/10/05 10:51:31;;;;;;;6.13;2.63;;;18.10;90.00;;;;;;5055743;28;20461;-57
2023/10/05 10:54:00;;;;;;;7.17;3.03;;;18.20;90.40;;;;;;5056128;28;20437;-57
2023/10/05 10:56:34;;;;;;;6.67;2.27;;;18.20;90.00;;;;;;5056020;28;20449;-57
2023/10/05 10:59:10;;;;;;;7.03;2.43;;;18.30;89.10;;;;;;5055952;28;20430;-57
2023/10/05 11:01:52;;;;;;;3.80;2.90;;;18.40;87.50;;;;;;5055901;28;20465;-57
2023/10/05 11:04:25;;;;;;;8.50;2.53;;;18.50;87.00;;;;;;5055855;28;20465;-57
2023/10/05 11:06:58;;;;;;;6.50;2.30;;;18.60;86.80;;;;;;5055855;28;20426;-57
2023/10/05 11:09:36;;;;;;;7.10;2.50;;;18.70;87.30;;;;;;5055877;28;20500;-57
2023/10/05 11:12:10;;;;;;;5.57;2.60;;;18.70;84.90;;;;;;5055720;28;20955;-57
2023/10/05 11:14:41;;;;;;;9.70;3.73;;;18.80;86.20;;;;;;5055772;28;20437;-57
2023/10/05 11:17:25;;;;;;;5.70;2.70;;;18.80;85.70;;;;;;5055590;28;20431;-57
2023/10/05 11:19:51;;;;;;;10.40;2.50;;;18.80;84.80;;;;;;5055205;28;20481;-57
2023/10/05 11:22:24;;;;;;;7.60;2.73;;;18.80;83.10;;;;;;5055395;28;20477;-56
2023/10/05 11:25:15;;;;;;;4.77;2.40;;;18.70;84.00;;;;;;5055537;28;20469;-56
2023/10/05 11:27:48;;;;;;;7.70;2.30;;;18.90;84.70;;;;;;5054512;28;20429;-56
2023/10/05 11:30:21;;;;;;;7.60;2.83;;;19.00;83.30;;;;;;5055119;28;20817;-56
2023/10/05 11:32:54;;;;;;;3.80;2.43;;;19.10;82.80;;;;;;5055555;28;20430;-56
2023/10/05 11:35:28;;;;;;;4.13;2.00;;;19.30;84.00;;;;;;5055542;28;20458;-56
2023/10/05 11:37:59;;;;;;;6.20;2.80;;;19.70;81.80;;;;;;5055712;28;20430;-57
2023/10/05 11:40:34;;;;;;;5.27;2.20;;;20.20;80.80;;;;;;5056733;28;20497;-57
2023/10/05 11:43:06;;;;;;;7.03;2.23;;;20.50;76.00;;;;;;5056697;28;20849;-57
2023/10/05 11:45:34;;;;;;;5.13;2.10;;;20.70;74.30;;;;;;5056306;28;20457;-57
2023/10/05 11:48:11;;;;;;;8.77;2.60;;;20.90;72.70;;;;;;5055513;28;20532;-57
2023/10/05 11:50:38;;;;;;;8.80;3.10;;;21.00;70.60;;;;;;5054678;28;21020;-57
2023/10/05 11:53:11;;;;;;;7.90;2.20;;;21.80;70.70;;;;;;5055173;28;20441;-57
2023/10/05 11:55:39;;;;;;;8.10;2.43;;;22.30;66.60;;;;;;5054634;28;20904;-57
2023/10/05 11:58:08;;;;;;;7.47;3.03;;;22.80;65.40;;;;;;5054928;28;20446;-57
2023/10/05 12:00:36;;;;;;;7.07;2.53;;;23.20;61.90;;;;;;5054675;28;20471;-57
2023/10/05 12:03:03;;;;;;;8.27;2.40;;;23.60;59.00;;;;;;5054770;28;20524;-57
2023/10/05 12:05:30;;;;;;;6.03;2.27;;;23.70;59.30;;;;;;5054762;28;20475;-57
2023/10/05 12:07:59;;;;;;;8.40;2.40;;;24.10;60.20;;;;;;5054774;28;20499;-57
2023/10/05 12:10:26;;;;;;;8.13;2.30;;;24.70;58.30;;;;;;5054434;28;20560;-57
2023/10/05 12:12:52;;;;;;;6.37;2.43;;;25.10;55.70;;;;;;5054334;28;20958;-57
2023/10/05 12:15:22;;;;;;;4.27;2.20;;;25.50;55.10;;;;;;5054189;28;20494;-56
2023/10/05 12:17:50;;;;;;;5.77;2.40;;;26.00;52.60;;;;;;5054247;28;20867;-57
2023/10/05 12:20:18;;;;;;;7.57;2.67;;;26.70;50.70;;;;;;5054534;28;20469;-57
2023/10/05 12:22:45;;;;;;;8.80;2.43;;;27.10;49.20;;;;;;5054325;28;20477;-57
2023/10/05 12:25:14;;;;;;;5.97;2.80;;;27.50;47.80;;;;;;5054214;28;20499;-57
2023/10/05 12:27:41;;;;;;;6.57;2.63;;;27.70;46.20;;;;;;5053895;28;20962;-57
2023/10/05 12:30:11;;;;;;;4.93;2.17;;;28.10;46.00;;;;;;5054146;28;20560;-57
2023/10/05 12:32:39;;;;;;;4.73;2.40;;;28.50;44.50;;;;;;5054110;28;20874;-57
2023/10/05 12:35:13;;;;;;;4.20;2.03;;;28.70;42.70;;;;;;5053771;28;20952;-57
2023/10/05 12:37:40;;;;;;;4.40;2.03;;;28.40;42.70;;;;;;5053700;28;20430;-57
2023/10/05 12:40:18;;;;;;;8.33;2.17;;;27.50;44.50;;;;;;5054003;28;20476;-57
2023/10/05 12:42:51;;;;;;;6.83;2.30;;;26.60;45.80;;;;;;5053882;28;20485;-57
2023/10/05 12:45:20;;;;;;;3.37;2.07;;;25.70;47.60;;;;;;5053826;28;20462;-57
2023/10/05 12:47:48;;;;;;;5.70;2.70;;;25.00;50.10;;;;;;5053845;28;20450;-57
2023/10/05 12:50:16;;;;;;;9.73;2.43;;;24.40;50.50;;;;;;5053618;28;20474;-57
2023/10/05 12:52:43;;;;;;;8.60;1.97;;;24.90;51.90;;;;;;5053844;28;20437;-57
2023/10/05 12:55:09;;;;;;;3.33;1.40;;;25.50;49.00;;;;;;5053777;28;20441;-57
2023/10/05 12:57:38;;;;;;;5.57;1.83;;;25.90;47.50;;;;;;5053765;28;20448;-57
2023/10/05 13:00:19;;;;;;;4.90;2.13;;;25.80;47.30;;;;;;5053392;28;20997;-57
2023/10/05 13:02:47;;;;;;;5.70;1.87;;;25.40;47.80;;;;;;5053647;28;20481;-57